createdAt,value
2018-02-05T00:01:09.739Z,10.80
2018-02-05T00:03:36.331Z,10.33
2018-02-05T00:06:03.220Z,9.93
2018-02-05T00:08:29.824Z,10.43
2018-02-05T00:10:56.420Z,9.60
2018-02-05T00:13:23.023Z,10.93
2018-02-05T00:15:49.619Z,10.00
2018-02-05T00:18:16.224Z,9.80
2018-02-05T00:20:42.815Z,9.20
2018-02-05T00:23:09.415Z,9.03
2018-02-05T00:25:36.011Z,10.83
2018-02-05T00:28:02.603Z,8.37
2018-02-05T00:30:29.495Z,9.17
2018-02-05T00:32:56.083Z,9.40
2018-02-05T00:35:22.684Z,9.53
2018-02-05T00:37:49.285Z,9.70
2018-02-05T00:40:15.877Z,9.57
2018-02-05T00:42:42.487Z,11.40
2018-02-05T00:45:09.066Z,8.83
2018-02-05T00:47:35.655Z,8.63
2018-02-05T00:50:02.316Z,12.70
2018-02-05T00:52:28.895Z,9.13
2018-02-05T00:54:55.796Z,8.77
2018-02-05T00:57:22.391Z,10.30
2018-02-05T00:59:49.012Z,9.87
2018-02-05T01:02:15.612Z,8.80
2018-02-05T01:04:42.202Z,6.93
2018-02-05T01:07:08.817Z,10.50
2018-02-05T01:09:35.400Z,8.53
2018-02-05T01:12:01.992Z,8.97
2018-02-05T01:14:28.587Z,8.57
2018-02-05T01:16:55.184Z,8.80
2018-02-05T01:19:21.795Z,8.57
2018-02-05T01:21:48.392Z,9.40
2018-02-05T01:24:14.983Z,7.73
2018-02-05T01:26:41.570Z,7.70
2018-02-05T01:29:08.167Z,8.27
2018-02-05T01:31:35.149Z,10.23
2018-02-05T01:34:01.739Z,8.43
2018-02-05T01:36:28.323Z,7.90
2018-02-05T01:38:54.924Z,7.50
2018-02-05T01:41:21.519Z,7.90
2018-02-05T01:43:48.406Z,10.00
2018-02-05T01:46:14.992Z,8.87
2018-02-05T01:48:41.592Z,7.73
2018-02-05T01:51:08.183Z,7.97
2018-02-05T01:53:34.861Z,7.57
2018-02-05T01:56:01.445Z,8.00
2018-02-05T01:58:28.039Z,8.30
2018-02-05T02:00:54.627Z,8.10
2018-02-05T02:03:21.223Z,7.37
2018-02-05T02:05:47.819Z,8.73
2018-02-05T02:08:14.432Z,8.20
2018-02-05T02:10:41.104Z,7.30
2018-02-05T02:13:07.680Z,7.63
2018-02-05T02:15:34.275Z,7.80
2018-02-05T02:18:00.865Z,9.50
2018-02-05T02:20:27.475Z,6.20
2018-02-05T02:22:54.067Z,8.07
2018-02-05T02:25:20.656Z,7.37
2018-02-05T02:27:47.267Z,6.57
2018-02-05T02:30:13.870Z,8.40
2018-02-05T02:32:40.803Z,7.60
2018-02-05T02:35:07.395Z,6.17
2018-02-05T02:37:33.988Z,8.13
2018-02-05T02:40:00.579Z,8.00
2018-02-05T02:42:27.192Z,8.03
2018-02-05T02:44:53.800Z,6.47
2018-02-05T02:47:20.391Z,8.97
2018-02-05T02:49:46.972Z,6.20
2018-02-05T02:52:13.572Z,6.67
2018-02-05T02:54:40.165Z,6.50
2018-02-05T02:57:06.864Z,9.60
2018-02-05T02:59:33.460Z,6.20
2018-02-05T03:02:00.049Z,5.97
2018-02-05T03:04:26.647Z,6.57
2018-02-05T03:06:53.234Z,6.70
2018-02-05T03:09:19.839Z,8.80
2018-02-05T03:11:46.423Z,7.47
2018-02-05T03:14:13.012Z,6.97
2018-02-05T03:16:39.608Z,7.00
2018-02-05T03:19:06.205Z,7.30
2018-02-05T03:21:33.150Z,8.67
2018-02-05T03:23:59.719Z,8.27
2018-02-05T03:26:26.312Z,6.00
2018-02-05T03:28:52.908Z,6.40
2018-02-05T03:31:19.500Z,7.20
2018-02-05T03:33:46.443Z,7.73
2018-02-05T03:36:13.035Z,6.53
2018-02-05T03:38:39.627Z,6.43
2018-02-05T03:41:06.223Z,7.20
2018-02-05T03:43:32.811Z,6.60
2018-02-05T03:45:59.408Z,6.93
2018-02-05T03:48:26.015Z,7.80
2018-02-05T03:50:52.609Z,7.13
2018-02-05T03:53:19.300Z,7.73
2018-02-05T03:55:45.880Z,7.23
2018-02-05T03:58:12.471Z,6.37
2018-02-05T04:00:39.328Z,7.37
2018-02-05T04:03:05.923Z,7.90
2018-02-05T04:05:32.535Z,6.60
2018-02-05T04:07:59.236Z,6.37
2018-02-05T04:10:25.827Z,7.90
2018-02-05T04:12:52.415Z,6.80
2018-02-05T04:15:19.015Z,9.50
2018-02-05T04:17:45.603Z,6.67
2018-02-05T04:20:12.698Z,7.53
2018-02-05T04:22:39.286Z,5.50
2018-02-05T04:25:05.891Z,6.83
2018-02-05T04:27:32.479Z,6.70
2018-02-05T04:29:59.071Z,7.23
2018-02-05T04:32:25.808Z,7.83
2018-02-05T04:34:52.400Z,6.90
2018-02-05T04:37:18.987Z,7.67
2018-02-05T04:39:45.596Z,7.27
2018-02-05T04:42:12.179Z,6.63
2018-02-05T04:44:39.099Z,7.77
2018-02-05T04:47:05.687Z,6.60
2018-02-05T04:49:32.288Z,7.90
2018-02-05T04:51:59.111Z,8.73
2018-02-05T04:54:25.715Z,9.63
2018-02-05T04:56:52.403Z,8.00
2018-02-05T04:59:18.996Z,8.70
2018-02-05T05:01:45.909Z,8.50
2018-02-05T05:04:12.536Z,6.87
2018-02-05T05:06:39.127Z,8.47
2018-02-05T05:09:06.013Z,7.07
2018-02-05T05:11:32.612Z,7.10
2018-02-05T05:13:59.203Z,8.13
2018-02-05T05:16:25.800Z,6.50
2018-02-05T05:18:52.387Z,7.60
2018-02-05T05:21:18.983Z,8.10
2018-02-05T05:23:45.571Z,9.67
2018-02-05T05:26:12.167Z,8.27
2018-02-05T05:28:38.807Z,7.90
2018-02-05T05:31:05.392Z,7.40
2018-02-05T05:33:31.999Z,7.33
2018-02-05T05:35:58.591Z,7.20
2018-02-05T05:38:25.188Z,9.30
2018-02-05T05:40:51.788Z,7.83
2018-02-05T05:43:18.380Z,7.13
2018-02-05T05:45:44.979Z,8.27
2018-02-05T05:48:11.566Z,7.87
2018-02-05T05:50:38.160Z,7.07
2018-02-05T05:53:04.756Z,7.30
2018-02-05T05:55:31.340Z,8.60
2018-02-05T05:57:57.938Z,7.23
2018-02-05T06:00:24.547Z,7.73
2018-02-05T06:02:51.194Z,9.13
2018-02-05T06:05:17.865Z,7.93
2018-02-05T06:07:44.451Z,8.13
2018-02-05T06:10:11.358Z,9.50
2018-02-05T06:12:37.947Z,8.07
2018-02-05T06:15:04.540Z,6.20
2018-02-05T06:17:31.140Z,7.60
2018-02-05T06:19:57.791Z,7.60
2018-02-05T06:22:24.717Z,11.23
2018-02-05T06:24:51.303Z,7.83
2018-02-05T06:27:17.891Z,9.70
2018-02-05T06:29:44.496Z,7.23
2018-02-05T06:32:11.084Z,14.53
2018-02-05T06:34:37.783Z,7.80
2018-02-05T06:37:04.387Z,8.57
2018-02-05T06:39:30.984Z,7.60
2018-02-05T06:41:57.581Z,8.67
2018-02-05T06:44:24.167Z,8.03
2018-02-05T06:46:50.768Z,8.93
2018-02-05T06:49:17.369Z,7.17
2018-02-05T06:52:00.908Z,7.57
2018-02-05T06:54:33.236Z,8.77
2018-02-05T06:56:59.819Z,7.80
2018-02-05T06:59:26.428Z,8.33
2018-02-05T07:01:53.012Z,7.87
2018-02-05T07:04:19.861Z,8.93
2018-02-05T07:06:46.456Z,6.60
2018-02-05T07:09:13.047Z,6.77
2018-02-05T07:11:39.640Z,9.23
2018-02-05T07:14:06.231Z,8.37
2018-02-05T07:16:32.840Z,7.60
2018-02-05T07:18:59.440Z,9.93
2018-02-05T07:21:26.046Z,10.90
2018-02-05T07:23:52.650Z,9.43
2018-02-05T07:26:19.237Z,8.50
2018-02-05T07:28:45.820Z,7.70
2018-02-05T07:31:12.679Z,9.80
2018-02-05T07:33:40.216Z,8.67
2018-02-05T07:36:06.807Z,9.07
2018-02-05T07:38:33.443Z,7.73
2018-02-05T07:41:00.033Z,7.70
2018-02-05T07:43:26.625Z,7.73
2018-02-05T07:45:53.251Z,8.07
2018-02-05T07:48:19.827Z,8.57
2018-02-05T07:50:46.424Z,8.33
2018-02-05T07:53:13.120Z,7.97
2018-02-05T07:55:39.713Z,8.07
2018-02-05T07:58:06.304Z,7.83
2018-02-05T08:00:33.259Z,8.83
2018-02-05T08:02:59.860Z,10.83
2018-02-05T08:05:26.451Z,7.43
2018-02-05T08:07:53.364Z,9.37
2018-02-05T08:10:19.960Z,9.80
2018-02-05T08:12:46.548Z,8.73
2018-02-05T08:15:13.277Z,8.73
2018-02-05T08:17:39.867Z,8.00
2018-02-05T08:20:06.464Z,12.30
2018-02-05T08:22:33.060Z,9.97
2018-02-05T08:24:59.662Z,9.10
2018-02-05T08:27:26.238Z,8.57
2018-02-05T08:29:53.139Z,8.90
2018-02-05T08:32:19.732Z,8.80
2018-02-05T08:34:46.324Z,7.30
2018-02-05T08:37:13.181Z,8.73
2018-02-05T08:39:39.780Z,8.30
2018-02-05T08:42:06.378Z,9.20
2018-02-05T08:44:33.307Z,10.20
2018-02-05T08:46:59.900Z,11.90
2018-02-05T08:49:26.497Z,11.33
2018-02-05T08:51:53.348Z,9.40
2018-02-05T08:54:20.000Z,11.70
2018-02-05T08:56:46.547Z,8.10
2018-02-05T08:59:13.165Z,9.67
2018-02-05T09:01:39.765Z,8.80
2018-02-05T09:04:06.359Z,9.57
2018-02-05T09:06:33.042Z,8.60
2018-02-05T09:08:59.607Z,10.37
2018-02-05T09:11:26.219Z,9.10
2018-02-05T09:13:53.163Z,8.47
2018-02-05T09:16:19.767Z,9.50
2018-02-05T09:18:46.365Z,9.20
2018-02-05T09:21:12.963Z,9.00
2018-02-05T09:23:39.556Z,8.40
2018-02-05T09:26:06.152Z,10.10
2018-02-05T09:28:32.767Z,9.60
2018-02-05T09:30:59.491Z,8.77
2018-02-05T09:33:26.087Z,7.30
2018-02-05T09:35:52.680Z,7.83
2018-02-05T09:38:19.277Z,8.30
2018-02-05T09:40:45.875Z,7.67
2018-02-05T09:43:12.500Z,9.10
2018-02-05T09:45:39.091Z,9.30
2018-02-05T09:48:05.691Z,9.60
2018-02-05T09:50:35.836Z,7.73
2018-02-05T09:53:02.633Z,9.73
2018-02-05T09:55:29.229Z,8.53
2018-02-05T09:57:56.183Z,8.17
2018-02-05T10:00:22.774Z,8.40
2018-02-05T10:02:49.369Z,8.57
2018-02-05T10:05:15.984Z,8.53
2018-02-05T10:07:42.587Z,8.20
2018-02-05T10:10:09.199Z,8.17
2018-02-05T10:12:35.911Z,7.87
2018-02-05T10:15:02.555Z,9.40
2018-02-05T10:17:29.163Z,9.63
2018-02-05T10:19:56.495Z,8.03
2018-02-05T10:22:23.088Z,7.43
2018-02-05T10:24:49.716Z,8.57
2018-02-05T10:27:16.596Z,7.03
2018-02-05T10:29:43.235Z,9.73
2018-02-05T10:32:09.866Z,8.00
2018-02-05T10:34:36.756Z,13.93
2018-02-05T10:37:03.342Z,10.03
2018-02-05T10:39:29.959Z,6.43
2018-02-05T10:41:56.567Z,8.20
2018-02-05T10:44:23.159Z,6.80
2018-02-05T10:46:49.752Z,7.67
2018-02-05T10:49:16.664Z,7.63
2018-02-05T10:51:43.371Z,6.93
2018-02-05T10:54:09.964Z,7.17
2018-02-05T10:56:36.957Z,7.13
2018-02-05T10:59:03.547Z,8.33
2018-02-05T11:01:32.116Z,7.90
2018-02-05T11:03:59.174Z,7.17
2018-02-05T11:06:25.759Z,7.40
2018-02-05T11:08:52.347Z,9.30
2018-02-05T11:11:19.276Z,7.23
2018-02-05T11:13:45.865Z,7.80
2018-02-05T11:16:12.476Z,8.07
2018-02-05T11:21:12.395Z,8.67
2018-02-05T11:23:39.012Z,8.20
2018-02-05T11:26:05.608Z,7.10
2018-02-05T11:28:32.212Z,6.33
2018-02-05T11:30:58.820Z,6.70
2018-02-05T11:33:25.411Z,9.67
2018-02-05T11:35:52.011Z,9.07
2018-02-05T11:38:18.663Z,8.10
2018-02-05T11:40:45.256Z,9.13
2018-02-05T11:43:11.870Z,6.77
2018-02-05T11:45:38.476Z,7.90
2018-02-05T11:48:05.176Z,9.27
2018-02-05T11:50:31.767Z,7.73
2018-02-05T11:52:58.389Z,6.37
2018-02-05T11:55:25.037Z,6.70
2018-02-05T11:57:51.639Z,6.00
2018-02-05T12:00:18.484Z,7.93
2018-02-05T12:02:45.087Z,6.93
2018-02-05T12:05:11.672Z,6.60
2018-02-05T12:07:38.280Z,5.87
2018-02-05T12:10:04.880Z,7.30
2018-02-05T12:12:31.479Z,7.60
2018-02-05T12:14:58.075Z,9.00
2018-02-05T12:17:24.671Z,7.40
2018-02-05T12:19:51.271Z,5.37
2018-02-05T12:22:17.867Z,6.30
2018-02-05T12:24:44.759Z,5.57
2018-02-05T12:27:11.351Z,6.10
2018-02-05T12:29:37.939Z,5.73
2018-02-05T12:32:04.571Z,5.57
2018-02-05T12:34:31.164Z,4.83
2018-02-05T12:36:57.808Z,6.57
2018-02-05T12:39:24.371Z,5.03
2018-02-05T12:41:51.899Z,6.80
2018-02-05T12:44:18.502Z,4.90
2018-02-05T12:46:45.096Z,6.83
2018-02-05T12:49:11.795Z,6.33
2018-02-05T12:51:40.347Z,5.30
2018-02-05T12:54:06.948Z,5.53
2018-02-05T12:56:33.547Z,4.47
2018-02-05T12:59:00.141Z,7.00
2018-02-05T13:01:35.377Z,5.57
2018-02-05T13:04:05.605Z,5.33
2018-02-05T13:06:35.968Z,4.40
2018-02-05T13:09:02.555Z,6.10
2018-02-05T13:11:29.463Z,6.40
2018-02-05T13:13:56.079Z,5.07
2018-02-05T13:16:22.675Z,5.27
2018-02-05T13:18:49.573Z,4.30
2018-02-05T13:21:16.192Z,4.17
2018-02-05T13:23:42.791Z,4.20
2018-02-05T13:26:09.388Z,4.87
2018-02-05T13:28:36.003Z,4.33
2018-02-05T13:31:02.612Z,4.83
2018-02-05T13:33:29.204Z,6.87
2018-02-05T13:35:55.801Z,3.60
2018-02-05T13:38:22.391Z,5.20
2018-02-05T13:40:48.999Z,4.20
2018-02-05T13:43:15.696Z,3.90
2018-02-05T13:45:42.307Z,4.07
2018-02-05T13:48:08.905Z,3.73
2018-02-05T13:50:35.500Z,4.07
2018-02-05T13:53:02.092Z,4.10
2018-02-05T13:55:28.692Z,4.33
2018-02-05T13:57:55.279Z,4.87
2018-02-05T14:00:21.879Z,4.37
2018-02-05T14:02:48.497Z,5.17
2018-02-05T14:05:15.112Z,4.47
2018-02-05T14:07:42.075Z,4.67
2018-02-05T14:10:08.672Z,4.23
2018-02-05T14:12:35.263Z,4.50
2018-02-05T14:15:01.869Z,4.50
2018-02-05T14:17:28.455Z,4.30
2018-02-05T14:19:55.054Z,4.33
2018-02-05T14:22:21.684Z,6.13
2018-02-05T14:24:48.248Z,6.17
2018-02-05T14:27:14.861Z,5.13
2018-02-05T14:29:41.482Z,4.90
2018-02-05T14:32:08.080Z,5.30
2018-02-05T14:34:34.675Z,6.20
2018-02-05T14:37:01.261Z,5.83
2018-02-05T14:39:27.855Z,6.80
2018-02-05T14:41:54.453Z,6.13
2018-02-05T14:44:21.063Z,8.60
2018-02-05T14:46:47.668Z,6.83
2018-02-05T14:49:14.264Z,6.13
2018-02-05T14:51:40.867Z,5.47
2018-02-05T14:54:07.459Z,5.70
2018-02-05T14:56:34.059Z,5.97
2018-02-05T14:59:00.655Z,6.07
2018-02-05T15:01:27.266Z,6.50
2018-02-05T15:03:53.864Z,7.00
2018-02-05T15:06:20.455Z,7.37
2018-02-05T15:08:47.067Z,5.70
2018-02-05T15:11:13.658Z,6.20
2018-02-05T15:13:40.252Z,7.37
2018-02-05T15:16:06.855Z,7.83
2018-02-05T15:18:33.450Z,6.60
2018-02-05T15:21:00.042Z,7.30
2018-02-05T15:23:26.631Z,8.27
2018-02-05T15:25:53.224Z,8.13
2018-02-05T15:28:19.815Z,7.93
2018-02-05T15:30:46.404Z,8.10
2018-02-05T15:33:13.112Z,6.33
2018-02-05T15:35:39.700Z,7.30
2018-02-05T15:38:06.297Z,11.60
2018-02-05T15:40:32.895Z,8.37
2018-02-05T15:42:59.484Z,9.20
2018-02-05T15:45:26.097Z,5.77
2018-02-05T15:47:52.679Z,9.20
2018-02-05T15:50:19.271Z,7.10
2018-02-05T15:52:45.874Z,6.87
2018-02-05T15:55:12.468Z,6.60
2018-02-05T15:57:39.357Z,7.00
2018-02-05T16:00:05.948Z,6.20
2018-02-05T16:02:32.543Z,8.03
2018-02-05T16:04:59.140Z,8.07
2018-02-05T16:07:25.733Z,8.30
2018-02-05T16:09:52.655Z,6.70
2018-02-05T16:12:19.245Z,7.20
2018-02-05T16:14:45.832Z,6.57
2018-02-05T16:17:12.438Z,6.77
2018-02-05T16:19:39.031Z,8.27
2018-02-05T16:22:05.637Z,7.53
2018-02-05T16:24:32.239Z,8.90
2018-02-05T16:26:58.830Z,7.93
2018-02-05T16:29:25.743Z,6.60
2018-02-05T16:31:52.863Z,9.90
2018-02-05T16:34:19.799Z,7.60
2018-02-05T16:36:46.543Z,8.33
2018-02-05T16:39:13.244Z,8.40
2018-02-05T16:41:40.135Z,9.80
2018-02-05T16:44:06.995Z,8.73
2018-02-05T16:46:33.633Z,10.83
2018-02-05T16:49:00.235Z,7.80
2018-02-05T16:51:26.955Z,8.93
2018-02-05T16:53:53.556Z,8.27
2018-02-05T16:56:20.156Z,10.80
2018-02-05T16:58:46.744Z,9.47
2018-02-05T17:01:13.376Z,9.80
2018-02-05T17:03:39.996Z,9.10
2018-02-05T17:06:06.696Z,11.27
2018-02-05T17:08:33.300Z,8.60
2018-02-05T17:10:59.895Z,9.73
2018-02-05T17:13:26.491Z,8.67
2018-02-05T17:15:53.083Z,9.50
2018-02-05T17:18:19.695Z,11.23
2018-02-05T17:20:46.299Z,10.23
2018-02-05T17:23:12.911Z,9.80
2018-02-05T17:25:39.628Z,10.30
2018-02-05T17:28:06.223Z,10.50
2018-02-05T17:30:32.829Z,10.00
2018-02-05T17:32:59.429Z,11.53
2018-02-05T17:35:26.069Z,9.33
2018-02-05T17:37:52.656Z,10.00
2018-02-05T17:40:19.249Z,9.47
2018-02-05T17:42:46.116Z,12.00
2018-02-05T17:45:12.716Z,10.20
2018-02-05T17:47:39.311Z,9.77
2018-02-05T17:50:05.920Z,10.90
2018-02-05T17:52:32.593Z,10.20
2018-02-05T17:54:59.208Z,12.03
2018-02-05T17:57:25.889Z,9.60
2018-02-05T17:59:52.487Z,10.67
2018-02-05T18:02:19.166Z,11.57
2018-02-05T18:04:45.724Z,11.70
2018-02-05T18:07:13.661Z,10.60
2018-02-05T18:09:40.288Z,10.80
2018-02-05T18:12:06.891Z,11.77
2018-02-05T18:14:33.505Z,13.43
2018-02-05T18:17:00.104Z,12.90
2018-02-05T18:19:26.716Z,11.50
2018-02-05T18:21:53.319Z,14.33
2018-02-05T18:24:19.907Z,11.80
2018-02-05T18:26:46.511Z,12.30
2018-02-05T18:29:13.112Z,14.47
2018-02-05T18:31:40.500Z,12.50
2018-02-05T18:34:07.095Z,12.87
2018-02-05T18:36:33.692Z,12.57
2018-02-05T18:39:00.300Z,11.90
2018-02-05T18:41:26.887Z,10.73
2018-02-05T18:43:53.538Z,13.30
2018-02-05T18:46:20.132Z,12.30
2018-02-05T18:48:46.731Z,13.90
2018-02-05T18:51:14.303Z,12.27
2018-02-05T18:53:40.892Z,13.57
2018-02-05T18:56:08.334Z,13.47
2018-02-05T18:58:34.920Z,13.10
2018-02-05T19:01:01.520Z,13.17
2018-02-05T19:03:28.126Z,13.23
2018-02-05T19:05:54.713Z,11.00
2018-02-05T19:08:21.667Z,12.53
2018-02-05T19:10:48.267Z,13.70
2018-02-05T19:13:16.151Z,13.50
2018-02-05T19:15:42.763Z,13.00
2018-02-05T19:18:09.347Z,14.13
2018-02-05T19:20:36.065Z,17.33
2018-02-05T19:23:02.675Z,14.53
2018-02-05T19:25:29.263Z,13.70
2018-02-05T19:27:55.868Z,14.03
2018-02-05T19:30:22.482Z,13.80
2018-02-05T19:32:49.393Z,12.00
2018-02-05T19:35:15.985Z,14.67
2018-02-05T19:37:42.591Z,11.67
2018-02-05T19:40:09.539Z,13.80
2018-02-05T19:42:36.139Z,16.07
2018-02-05T19:45:03.087Z,12.93
2018-02-05T19:47:29.988Z,13.17
2018-02-05T19:49:56.901Z,13.83
2018-02-05T19:52:23.505Z,14.87
2018-02-05T19:54:50.100Z,14.70
2018-02-05T19:57:16.697Z,15.47
2018-02-05T19:59:43.303Z,13.77
2018-02-05T20:02:09.907Z,15.43
2018-02-05T20:04:36.500Z,14.60
2018-02-05T20:07:03.111Z,14.50
2018-02-05T20:09:29.709Z,14.27
2018-02-05T20:11:56.319Z,13.63
2018-02-05T20:14:22.929Z,14.53
2018-02-05T20:16:49.520Z,16.70
2018-02-05T20:19:16.124Z,16.40
2018-02-05T20:21:42.740Z,16.10
2018-02-05T20:24:09.351Z,16.47
2018-02-05T20:26:35.948Z,16.70
2018-02-05T20:29:02.539Z,15.07
2018-02-05T20:31:29.142Z,18.50
2018-02-05T20:33:55.739Z,15.37
2018-02-05T20:36:22.347Z,17.63
2018-02-05T20:38:48.939Z,19.43
2018-02-05T20:41:15.540Z,16.90
2018-02-05T20:43:42.139Z,18.17
2018-02-05T20:46:08.740Z,15.97
2018-02-05T20:48:35.345Z,17.27
2018-02-05T20:51:01.943Z,16.30
2018-02-05T20:53:28.538Z,19.90
2018-02-05T20:55:55.155Z,20.60
2018-02-05T20:58:21.735Z,18.70
2018-02-05T21:00:48.355Z,16.97
2018-02-05T21:03:14.950Z,18.13
2018-02-05T21:05:41.564Z,18.63
2018-02-05T21:08:08.197Z,23.50
2018-02-05T21:10:34.796Z,17.57
2018-02-05T21:13:01.420Z,19.33
2018-02-05T21:15:28.025Z,17.47
2018-02-05T21:17:54.616Z,17.63
2018-02-05T21:20:21.224Z,19.20
2018-02-05T21:22:47.826Z,17.00
2018-02-05T21:25:14.439Z,18.87
2018-02-05T21:27:41.060Z,18.23
2018-02-05T21:30:07.655Z,17.07
2018-02-05T21:32:34.255Z,17.93
2018-02-05T21:35:00.865Z,16.83
2018-02-05T21:37:27.468Z,16.83
2018-02-05T21:39:54.117Z,17.73
2018-02-05T21:42:20.722Z,17.60
2018-02-05T21:44:47.320Z,18.17
2018-02-05T21:47:13.925Z,19.33
2018-02-05T21:49:40.527Z,16.20
2018-02-05T21:52:07.147Z,20.60
2018-02-05T21:54:33.751Z,17.27
2018-02-05T21:57:00.351Z,17.77
2018-02-05T21:59:26.961Z,19.10
2018-02-05T22:01:53.571Z,17.10
2018-02-05T22:04:20.169Z,18.47
2018-02-05T22:06:46.759Z,16.80
2018-02-05T22:09:13.386Z,16.27
2018-02-05T22:11:39.984Z,16.73
2018-02-05T22:14:06.609Z,16.77
2018-02-05T22:16:33.286Z,16.70
2018-02-05T22:18:59.835Z,20.50
2018-02-05T22:21:26.439Z,18.17
2018-02-05T22:23:53.032Z,14.60
2018-02-05T22:26:19.649Z,16.70
2018-02-05T22:28:46.235Z,18.30
2018-02-05T22:31:12.835Z,17.90
2018-02-05T22:33:39.455Z,20.00
2018-02-05T22:36:06.101Z,16.97
2018-02-05T22:38:32.977Z,17.50
2018-02-05T22:40:59.576Z,18.33
2018-02-05T22:43:26.174Z,14.40
2018-02-05T22:45:52.771Z,16.97
2018-02-05T22:48:19.398Z,17.37
2018-02-05T22:50:45.995Z,15.33
2018-02-05T22:53:12.632Z,16.80
2018-02-05T22:55:39.222Z,14.17
2018-02-05T22:58:05.823Z,17.80
2018-02-05T23:00:32.415Z,16.27
2018-02-05T23:02:59.011Z,17.00
2018-02-05T23:05:25.784Z,14.90
2018-02-05T23:07:52.391Z,15.90
2018-02-05T23:10:19.276Z,16.83
2018-02-05T23:12:45.867Z,15.83
2018-02-05T23:15:12.471Z,17.33
2018-02-05T23:17:39.091Z,20.00
2018-02-05T23:20:05.687Z,19.30
2018-02-05T23:22:32.315Z,16.03
2018-02-05T23:24:58.907Z,13.70
2018-02-05T23:27:25.499Z,15.20
2018-02-05T23:29:52.106Z,16.53
2018-02-05T23:32:18.700Z,15.90
2018-02-05T23:34:45.311Z,14.60
2018-02-05T23:37:11.903Z,17.33
2018-02-05T23:39:38.535Z,15.70
2018-02-05T23:42:05.144Z,16.43
2018-02-05T23:44:31.735Z,15.50
2018-02-05T23:46:58.345Z,16.47
2018-02-05T23:49:24.939Z,15.13
2018-02-05T23:51:51.532Z,15.97
2018-02-05T23:54:18.138Z,15.73
2018-02-05T23:56:44.731Z,15.40
2018-02-05T23:59:11.352Z,17.77
